sensor_id;sensor_type;location;lat;lon;timestamp;pressure;altitude;pressure_sealevel;temperature;humidity
64200;BME280;50516;52.272;5.136;2023-08-31T00:02:00;100741.38;;;14.20;90.84
64200;BME280;50516;52.272;5.136;2023-08-31T00:04:26;100738.41;;;14.17;91.14
64200;BME280;50516;52.272;5.136;2023-08-31T00:06:51;100738.78;;;14.29;90.87
64200;BME280;50516;52.272;5.136;2023-08-31T00:09:16;100737.56;;;14.35;90.58
64200;BME280;50516;52.272;5.136;2023-08-31T00:11:41;100742.78;;;14.37;90.53
64200;BME280;50516;52.272;5.136;2023-08-31T00:14:07;100736.16;;;14.19;91.56
64200;BME280;50516;52.272;5.136;2023-08-31T00:16:32;100735.56;;;14.22;91.94
64200;BME280;50516;52.272;5.136;2023-08-31T00:18:58;100728.09;;;14.22;92.15
64200;BME280;50516;52.272;5.136;2023-08-31T00:21:24;100742.78;;;14.37;91.61
64200;BME280;50516;52.272;5.136;2023-08-31T00:23:49;100752.72;;;14.38;91.86
64200;BME280;50516;52.272;5.136;2023-08-31T00:26:15;100747.81;;;14.35;91.81
64200;BME280;50516;52.272;5.136;2023-08-31T00:28:40;100742.78;;;14.37;92.68
64200;BME280;50516;52.272;5.136;2023-08-31T00:31:08;100739.03;;;14.47;92.29
64200;BME280;50516;52.272;5.136;2023-08-31T00:33:33;100736.44;;;14.55;92.41
64200;BME280;50516;52.272;5.136;2023-08-31T00:36:00;100726.66;;;14.63;92.07
64200;BME280;50516;52.272;5.136;2023-08-31T00:38:29;100732.19;;;14.63;91.96
64200;BME280;50516;52.272;5.136;2023-08-31T00:40:54;100732.09;;;14.68;92.25
64200;BME280;50516;52.272;5.136;2023-08-31T00:43:20;100730.06;;;14.74;92.18
64200;BME280;50516;52.272;5.136;2023-08-31T00:45:48;100739.69;;;14.76;91.92
64200;BME280;50516;52.272;5.136;2023-08-31T00:48:15;100746.13;;;14.72;92.22
64200;BME280;50516;52.272;5.136;2023-08-31T00:50:42;100749.09;;;14.75;92.20
64200;BME280;50516;52.272;5.136;2023-08-31T00:53:08;100736.44;;;14.74;92.32
64200;BME280;50516;52.272;5.136;2023-08-31T00:55:33;100738.22;;;14.65;92.26
64200;BME280;50516;52.272;5.136;2023-08-31T00:57:59;100748.22;;;14.61;92.97
64200;BME280;50516;52.272;5.136;2023-08-31T01:00:31;100748.16;;;14.66;92.98
64200;BME280;50516;52.272;5.136;2023-08-31T01:03:04;100734.31;;;14.66;93.16
64200;BME280;50516;52.272;5.136;2023-08-31T01:06:12;100759.13;;;14.71;92.93
64200;BME280;50516;52.272;5.136;2023-08-31T01:08:40;100773.75;;;14.53;93.58
64200;BME280;50516;52.272;5.136;2023-08-31T01:14:09;100760.56;;;14.31;95.58
64200;BME280;50516;52.272;5.136;2023-08-31T01:16:37;100745.63;;;14.51;95.14
64200;BME280;50516;52.272;5.136;2023-08-31T01:19:09;100760.25;;;14.51;95.09
64200;BME280;50516;52.272;5.136;2023-08-31T01:21:42;100761.59;;;14.54;95.63
64200;BME280;50516;52.272;5.136;2023-08-31T01:24:10;100752.25;;;14.50;96.12
64200;BME280;50516;52.272;5.136;2023-08-31T01:26:35;100759.44;;;14.51;96.39
64200;BME280;50516;52.272;5.136;2023-08-31T01:29:01;100748.56;;;14.40;97.01
64200;BME280;50516;52.272;5.136;2023-08-31T01:31:27;100746.31;;;14.42;97.08
64200;BME280;50516;52.272;5.136;2023-08-31T01:33:52;100733.41;;;14.38;97.21
64200;BME280;50516;52.272;5.136;2023-08-31T01:36:20;100733.09;;;14.39;96.77
64200;BME280;50516;52.272;5.136;2023-08-31T01:38:50;100733.09;;;14.39;96.77
64200;BME280;50516;52.272;5.136;2023-08-31T01:41:19;100731.97;;;14.40;97.06
64200;BME280;50516;52.272;5.136;2023-08-31T01:43:47;100722.72;;;14.31;97.13
64200;BME280;50516;52.272;5.136;2023-08-31T01:46:13;100730.84;;;14.22;97.87
64200;BME280;50516;52.272;5.136;2023-08-31T01:48:40;100730.03;;;14.22;98.40
64200;BME280;50516;52.272;5.136;2023-08-31T01:51:07;100737.59;;;14.16;98.33
64200;BME280;50516;52.272;5.136;2023-08-31T01:53:32;100727.78;;;14.24;98.09
64200;BME280;50516;52.272;5.136;2023-08-31T01:55:57;100723.13;;;14.24;98.31
64200;BME280;50516;52.272;5.136;2023-08-31T01:58:23;100726.31;;;14.13;98.30
64200;BME280;50516;52.272;5.136;2023-08-31T02:00:48;100732.91;;;14.17;98.54
64200;BME280;50516;52.272;5.136;2023-08-31T02:03:13;100744.16;;;14.20;98.44
64200;BME280;50516;52.272;5.136;2023-08-31T02:05:39;100743.03;;;14.21;98.23
64200;BME280;50516;52.272;5.136;2023-08-31T02:08:04;100744.09;;;14.06;98.59
64200;BME280;50516;52.272;5.136;2023-08-31T02:10:29;100756.03;;;14.02;98.93
64200;BME280;50516;52.272;5.136;2023-08-31T02:12:55;100755.84;;;13.93;99.31
64200;BME280;50516;52.272;5.136;2023-08-31T02:15:20;100759.94;;;13.77;99.58
64200;BME280;50516;52.272;5.136;2023-08-31T02:17:45;100753.41;;;13.92;98.89
64200;BME280;50516;52.272;5.136;2023-08-31T02:20:11;100755.56;;;13.95;98.93
64200;BME280;50516;52.272;5.136;2023-08-31T02:22:36;100748.34;;;13.99;98.76
64200;BME280;50516;52.272;5.136;2023-08-31T02:25:02;100742.59;;;13.95;98.37
64200;BME280;50516;52.272;5.136;2023-08-31T02:27:28;100743.41;;;13.96;98.25
64200;BME280;50516;52.272;5.136;2023-08-31T02:29:53;100736.84;;;13.92;98.12
64200;BME280;50516;52.272;5.136;2023-08-31T02:32:19;100738.19;;;13.94;98.08
64200;BME280;50516;52.272;5.136;2023-08-31T02:34:44;100737.97;;;13.91;97.72
64200;BME280;50516;52.272;5.136;2023-08-31T02:37:09;100738.84;;;13.86;97.53
64200;BME280;50516;52.272;5.136;2023-08-31T02:39:35;100741.09;;;13.84;97.75
64200;BME280;50516;52.272;5.136;2023-08-31T02:42:00;100732.44;;;13.72;98.07
64200;BME280;50516;52.272;5.136;2023-08-31T02:44:26;100735.00;;;13.63;98.40
64200;BME280;50516;52.272;5.136;2023-08-31T02:46:51;100730.78;;;13.70;98.10
64200;BME280;50516;52.272;5.136;2023-08-31T02:49:16;100734.00;;;13.78;97.76
64200;BME280;50516;52.272;5.136;2023-08-31T02:51:42;100730.88;;;13.84;97.25
64200;BME280;50516;52.272;5.136;2023-08-31T02:54:07;100729.00;;;13.80;97.42
64200;BME280;50516;52.272;5.136;2023-08-31T02:56:32;100731.47;;;13.81;97.35
64200;BME280;50516;52.272;5.136;2023-08-31T02:58:57;100738.56;;;13.87;97.34
64200;BME280;50516;52.272;5.136;2023-08-31T03:01:23;100736.63;;;13.88;97.33
64200;BME280;50516;52.272;5.136;2023-08-31T03:03:49;100736.09;;;13.86;97.68
64200;BME280;50516;52.272;5.136;2023-08-31T03:06:14;100746.47;;;13.94;97.28
64200;BME280;50516;52.272;5.136;2023-08-31T03:08:40;100758.84;;;13.97;97.34
64200;BME280;50516;52.272;5.136;2023-08-31T03:11:06;100758.91;;;13.92;97.59
64200;BME280;50516;52.272;5.136;2023-08-31T03:13:32;100756.06;;;13.97;97.34
64200;BME280;50516;52.272;5.136;2023-08-31T03:15:58;100754.44;;;13.96;97.52
64200;BME280;50516;52.272;5.136;2023-08-31T03:18:24;100747.50;;;13.98;97.15
64200;BME280;50516;52.272;5.136;2023-08-31T03:20:50;100755.25;;;13.96;96.65
64200;BME280;50516;52.272;5.136;2023-08-31T03:23:15;100751.47;;;13.92;96.76
64200;BME280;50516;52.272;5.136;2023-08-31T03:25:41;100752.72;;;13.81;97.46
64200;BME280;50516;52.272;5.136;2023-08-31T03:28:07;100764.44;;;13.73;97.68
64200;BME280;50516;52.272;5.136;2023-08-31T03:30:33;100757.03;;;13.68;97.65
64200;BME280;50516;52.272;5.136;2023-08-31T03:32:58;100752.84;;;13.70;97.81
64200;BME280;50516;52.272;5.136;2023-08-31T03:35:24;100748.63;;;13.54;97.62
64200;BME280;50516;52.272;5.136;2023-08-31T03:37:55;100749.72;;;13.58;98.31
64200;BME280;50516;52.272;5.136;2023-08-31T03:40:21;100759.16;;;13.52;98.45
64200;BME280;50516;52.272;5.136;2023-08-31T03:42:48;100757.06;;;13.63;97.78
64200;BME280;50516;52.272;5.136;2023-08-31T03:45:13;100754.09;;;13.59;97.96
64200;BME280;50516;52.272;5.136;2023-08-31T03:47:38;100759.03;;;13.62;97.98
64200;BME280;50516;52.272;5.136;2023-08-31T03:50:04;100765.81;;;13.70;97.78
64200;BME280;50516;52.272;5.136;2023-08-31T03:52:30;100759.84;;;13.63;97.86
64200;BME280;50516;52.272;5.136;2023-08-31T03:54:55;100752.06;;;13.46;98.81
64200;BME280;50516;52.272;5.136;2023-08-31T03:57:20;100754.72;;;13.27;99.50
64200;BME280;50516;52.272;5.136;2023-08-31T03:59:46;100753.84;;;13.31;100.00
64200;BME280;50516;52.272;5.136;2023-08-31T04:02:11;100766.72;;;13.41;99.66
64200;BME280;50516;52.272;5.136;2023-08-31T04:04:37;100760.56;;;13.49;99.65
64200;BME280;50516;52.272;5.136;2023-08-31T04:07:02;100758.28;;;13.32;99.92
64200;BME280;50516;52.272;5.136;2023-08-31T04:09:27;100763.09;;;13.46;100.00
64200;BME280;50516;52.272;5.136;2023-08-31T04:11:52;100764.53;;;13.38;100.00
64200;BME280;50516;52.272;5.136;2023-08-31T04:14:18;100764.16;;;13.50;100.00
64200;BME280;50516;52.272;5.136;2023-08-31T04:16:44;100762.94;;;13.56;99.79
64200;BME280;50516;52.272;5.136;2023-08-31T04:19:09;100777.03;;;13.55;99.83
64200;BME280;50516;52.272;5.136;2023-08-31T04:21:35;100774.53;;;13.58;100.00
64200;BME280;50516;52.272;5.136;2023-08-31T04:24:01;100771.72;;;13.63;99.74
64200;BME280;50516;52.272;5.136;2023-08-31T04:26:26;100774.41;;;13.68;99.46
64200;BME280;50516;52.272;5.136;2023-08-31T04:28:52;100770.47;;;13.75;99.29
64200;BME280;50516;52.272;5.136;2023-08-31T04:31:18;100764.34;;;13.78;98.77
64200;BME280;50516;52.272;5.136;2023-08-31T04:33:45;100771.06;;;13.72;99.20
64200;BME280;50516;52.272;5.136;2023-08-31T04:36:10;100770.97;;;13.77;98.93
64200;BME280;50516;52.272;5.136;2023-08-31T04:38:37;100784.34;;;13.69;99.22
64200;BME280;50516;52.272;5.136;2023-08-31T04:41:03;100778.75;;;13.75;98.97
64200;BME280;50516;52.272;5.136;2023-08-31T04:43:29;100794.72;;;13.78;98.77
64200;BME280;50516;52.272;5.136;2023-08-31T04:45:54;100801.28;;;13.82;98.70
64200;BME280;50516;52.272;5.136;2023-08-31T04:48:20;100795.53;;;13.78;98.81
64200;BME280;50516;52.272;5.136;2023-08-31T04:50:45;100805.75;;;13.78;98.86
64200;BME280;50516;52.272;5.136;2023-08-31T04:53:11;100806.84;;;13.77;99.48
64200;BME280;50516;52.272;5.136;2023-08-31T04:55:36;100811.78;;;13.80;99.43
64200;BME280;50516;52.272;5.136;2023-08-31T04:58:03;100814.78;;;13.83;99.14
64200;BME280;50516;52.272;5.136;2023-08-31T05:00:28;100819.34;;;13.93;98.66
64200;BME280;50516;52.272;5.136;2023-08-31T05:02:53;100814.03;;;13.97;98.37
64200;BME280;50516;52.272;5.136;2023-08-31T05:05:18;100816.00;;;13.96;98.18
64200;BME280;50516;52.272;5.136;2023-08-31T05:07:44;100813.31;;;13.91;98.51
64200;BME280;50516;52.272;5.136;2023-08-31T05:10:09;100819.34;;;13.93;98.70
64200;BME280;50516;52.272;5.136;2023-08-31T05:12:35;100824.13;;;13.87;99.14
64200;BME280;50516;52.272;5.136;2023-08-31T05:15:00;100838.16;;;13.91;99.46
64200;BME280;50516;52.272;5.136;2023-08-31T05:17:25;100840.91;;;13.91;99.66
64200;BME280;50516;52.272;5.136;2023-08-31T05:19:50;100837.03;;;13.92;99.72
64200;BME280;50516;52.272;5.136;2023-08-31T05:22:16;100835.84;;;13.98;99.33
64200;BME280;50516;52.272;5.136;2023-08-31T05:24:41;100840.47;;;14.03;99.23
64200;BME280;50516;52.272;5.136;2023-08-31T05:27:07;100842.94;;;14.04;99.39
64200;BME280;50516;52.272;5.136;2023-08-31T05:29:32;100847.44;;;14.00;99.41
64200;BME280;50516;52.272;5.136;2023-08-31T05:31:57;100848.75;;;14.03;99.89
64200;BME280;50516;52.272;5.136;2023-08-31T05:34:25;100842.94;;;14.04;99.90
64200;BME280;50516;52.272;5.136;2023-08-31T05:36:50;100851.44;;;14.08;100.00
64200;BME280;50516;52.272;5.136;2023-08-31T05:39:15;100849.31;;;14.05;100.00
64200;BME280;50516;52.272;5.136;2023-08-31T05:41:43;100845.91;;;14.08;100.00
64200;BME280;50516;52.272;5.136;2023-08-31T05:44:09;100856.16;;;14.07;100.00
64200;BME280;50516;52.272;5.136;2023-08-31T05:46:35;100846.53;;;14.05;100.00
64200;BME280;50516;52.272;5.136;2023-08-31T05:49:00;100851.91;;;14.15;100.00
64200;BME280;50516;52.272;5.136;2023-08-31T05:51:25;100852.72;;;14.16;100.00
64200;BME280;50516;52.272;5.136;2023-08-31T05:53:51;100857.97;;;14.17;100.00
64200;BME280;50516;52.272;5.136;2023-08-31T05:56:18;100857.06;;;14.22;100.00
64200;BME280;50516;52.272;5.136;2023-08-31T05:58:43;100856.09;;;14.13;100.00
64200;BME280;50516;52.272;5.136;2023-08-31T06:01:11;100856.97;;;14.08;100.00
64200;BME280;50516;52.272;5.136;2023-08-31T06:03:37;100865.88;;;14.24;100.00
64200;BME280;50516;52.272;5.136;2023-08-31T06:06:02;100866.50;;;14.40;99.34
64200;BME280;50516;52.272;5.136;2023-08-31T06:08:28;100866.66;;;14.49;99.23
64200;BME280;50516;52.272;5.136;2023-08-31T06:10:55;100861.56;;;14.56;98.90
64200;BME280;50516;52.272;5.136;2023-08-31T06:13:20;100869.34;;;14.54;98.98
64200;BME280;50516;52.272;5.136;2023-08-31T06:15:45;100863.81;;;14.54;98.86
64200;BME280;50516;52.272;5.136;2023-08-31T06:18:11;100868.22;;;14.55;98.92
64200;BME280;50516;52.272;5.136;2023-08-31T06:20:36;100869.69;;;14.71;98.40
64200;BME280;50516;52.272;5.136;2023-08-31T06:23:02;100874.16;;;14.67;98.78
64200;BME280;50516;52.272;5.136;2023-08-31T06:25:27;100880.88;;;14.61;98.61
64200;BME280;50516;52.272;5.136;2023-08-31T06:27:53;100868.31;;;14.88;97.46
64200;BME280;50516;52.272;5.136;2023-08-31T06:30:18;100883.00;;;15.35;95.97
64200;BME280;50516;52.272;5.136;2023-08-31T06:32:44;100876.56;;;16.00;93.59
64200;BME280;50516;52.272;5.136;2023-08-31T06:35:13;100869.47;;;16.08;93.25
64200;BME280;50516;52.272;5.136;2023-08-31T06:37:40;100874.88;;;15.72;94.75
64200;BME280;50516;52.272;5.136;2023-08-31T06:40:08;100881.59;;;15.51;95.72
64200;BME280;50516;52.272;5.136;2023-08-31T06:42:37;100873.59;;;15.50;95.81
64200;BME280;50516;52.272;5.136;2023-08-31T06:45:04;100869.53;;;15.47;95.54
64200;BME280;50516;52.272;5.136;2023-08-31T06:47:30;100873.69;;;15.45;95.77
64200;BME280;50516;52.272;5.136;2023-08-31T06:49:55;100881.00;;;15.55;95.80
64200;BME280;50516;52.272;5.136;2023-08-31T06:52:20;100883.66;;;15.60;95.27
64200;BME280;50516;52.272;5.136;2023-08-31T06:54:46;100886.72;;;15.44;96.10
64200;BME280;50516;52.272;5.136;2023-08-31T06:57:11;100894.53;;;15.42;96.34
64200;BME280;50516;52.272;5.136;2023-08-31T06:59:36;100899.13;;;15.14;97.64
64200;BME280;50516;52.272;5.136;2023-08-31T07:02:02;100896.00;;;15.02;98.20
64200;BME280;50516;52.272;5.136;2023-08-31T07:04:27;100889.94;;;15.19;98.21
64200;BME280;50516;52.272;5.136;2023-08-31T07:06:53;100903.31;;;15.77;96.23
64200;BME280;50516;52.272;5.136;2023-08-31T07:09:18;100907.13;;;16.09;95.67
64200;BME280;50516;52.272;5.136;2023-08-31T07:11:43;100897.47;;;16.20;95.11
64200;BME280;50516;52.272;5.136;2023-08-31T07:14:09;100900.53;;;15.77;96.26
64200;BME280;50516;52.272;5.136;2023-08-31T07:16:34;100913.84;;;15.75;97.31
64200;BME280;50516;52.272;5.136;2023-08-31T07:18:59;100910.41;;;16.11;96.25
64200;BME280;50516;52.272;5.136;2023-08-31T07:21:25;100915.50;;;16.18;95.95
64200;BME280;50516;52.272;5.136;2023-08-31T07:23:50;100916.09;;;16.56;95.09
64200;BME280;50516;52.272;5.136;2023-08-31T07:26:15;100924.50;;;16.65;94.91
64200;BME280;50516;52.272;5.136;2023-08-31T07:28:41;100923.22;;;16.35;95.93
64200;BME280;50516;52.272;5.136;2023-08-31T07:31:07;100921.31;;;16.72;94.75
64200;BME280;50516;52.272;5.136;2023-08-31T07:33:33;100933.09;;;17.14;92.28
64200;BME280;50516;52.272;5.136;2023-08-31T07:36:00;100923.72;;;17.24;92.93
64200;BME280;50516;52.272;5.136;2023-08-31T07:38:26;100946.31;;;16.44;95.38
64200;BME280;50516;52.272;5.136;2023-08-31T07:40:53;100940.63;;;15.94;96.73
64200;BME280;50516;52.272;5.136;2023-08-31T07:43:18;100940.13;;;15.78;98.56
64200;BME280;50516;52.272;5.136;2023-08-31T07:45:43;100947.88;;;15.76;99.22
64200;BME280;50516;52.272;5.136;2023-08-31T07:48:09;100939.28;;;15.77;98.57
64200;BME280;50516;52.272;5.136;2023-08-31T07:50:34;100947.31;;;15.93;96.80
64200;BME280;50516;52.272;5.136;2023-08-31T07:53:00;100947.00;;;16.08;96.74
64200;BME280;50516;52.272;5.136;2023-08-31T07:55:25;100947.53;;;16.10;96.64
64200;BME280;50516;52.272;5.136;2023-08-31T07:57:50;100945.91;;;16.09;96.90
64200;BME280;50516;52.272;5.136;2023-08-31T08:00:16;100950.22;;;16.15;97.64
64200;BME280;50516;52.272;5.136;2023-08-31T08:02:41;100946.09;;;16.27;97.35
64200;BME280;50516;52.272;5.136;2023-08-31T08:05:07;100948.16;;;16.21;97.40
64200;BME280;50516;52.272;5.136;2023-08-31T08:07:32;100953.53;;;16.68;96.70
64200;BME280;50516;52.272;5.136;2023-08-31T08:09:57;100957.53;;;16.89;95.51
64200;BME280;50516;52.272;5.136;2023-08-31T08:12:24;100956.28;;;16.95;95.62
64200;BME280;50516;52.272;5.136;2023-08-31T08:14:50;100951.19;;;17.11;95.28
64200;BME280;50516;52.272;5.136;2023-08-31T08:17:15;100953.81;;;16.94;96.46
64200;BME280;50516;52.272;5.136;2023-08-31T08:19:40;100954.66;;;16.94;96.69
64200;BME280;50516;52.272;5.136;2023-08-31T08:22:05;100960.28;;;17.26;95.71
64200;BME280;50516;52.272;5.136;2023-08-31T08:24:31;100961.66;;;17.14;95.94
64200;BME280;50516;52.272;5.136;2023-08-31T08:26:56;100959.81;;;17.10;96.48
64200;BME280;50516;52.272;5.136;2023-08-31T08:29:21;100960.72;;;17.19;94.08
64200;BME280;50516;52.272;5.136;2023-08-31T08:31:46;100957.69;;;17.29;94.48
64200;BME280;50516;52.272;5.136;2023-08-31T08:34:12;100967.41;;;17.41;94.41
64200;BME280;50516;52.272;5.136;2023-08-31T08:36:37;100958.75;;;17.65;93.56
64200;BME280;50516;52.272;5.136;2023-08-31T08:39:02;100969.94;;;18.05;92.04
64200;BME280;50516;52.272;5.136;2023-08-31T08:41:29;100977.84;;;17.89;91.92
64200;BME280;50516;52.272;5.136;2023-08-31T08:43:56;100978.63;;;17.58;92.70
64200;BME280;50516;52.272;5.136;2023-08-31T08:46:26;100980.56;;;17.80;92.51
64200;BME280;50516;52.272;5.136;2023-08-31T08:48:53;100982.00;;;17.78;91.72
64200;BME280;50516;52.272;5.136;2023-08-31T08:51:20;100979.50;;;17.90;91.23
64200;BME280;50516;52.272;5.136;2023-08-31T08:53:46;100980.41;;;18.08;90.42
64200;BME280;50516;52.272;5.136;2023-08-31T08:56:11;100987.84;;;17.90;90.28
64200;BME280;50516;52.272;5.136;2023-08-31T08:58:37;100988.72;;;17.77;89.82
64200;BME280;50516;52.272;5.136;2023-08-31T09:01:03;100980.75;;;17.84;87.97
64200;BME280;50516;52.272;5.136;2023-08-31T09:03:29;100985.72;;;18.18;86.47
64200;BME280;50516;52.272;5.136;2023-08-31T09:05:54;100975.75;;;18.26;85.68
64200;BME280;50516;52.272;5.136;2023-08-31T09:08:27;100982.22;;;18.13;84.71
64200;BME280;50516;52.272;5.136;2023-08-31T09:10:55;100988.19;;;17.97;85.18
64200;BME280;50516;52.272;5.136;2023-08-31T09:13:27;100982.69;;;18.06;83.33
64200;BME280;50516;52.272;5.136;2023-08-31T09:15:54;100985.78;;;18.45;83.74
64200;BME280;50516;52.272;5.136;2023-08-31T09:18:24;100981.75;;;18.68;84.00
64200;BME280;50516;52.272;5.136;2023-08-31T09:20:50;100977.34;;;18.76;82.93
64200;BME280;50516;52.272;5.136;2023-08-31T09:23:16;100980.78;;;18.64;82.16
64200;BME280;50516;52.272;5.136;2023-08-31T09:25:46;100986.19;;;18.78;82.68
64200;BME280;50516;52.272;5.136;2023-08-31T09:28:13;100986.88;;;18.92;82.44
64200;BME280;50516;52.272;5.136;2023-08-31T09:30:39;100979.53;;;19.05;81.90
64200;BME280;50516;52.272;5.136;2023-08-31T09:33:12;100982.16;;;19.28;80.35
64200;BME280;50516;52.272;5.136;2023-08-31T09:35:39;100986.41;;;19.51;79.04
64200;BME280;50516;52.272;5.136;2023-08-31T09:38:08;100982.28;;;19.66;78.33
64200;BME280;50516;52.272;5.136;2023-08-31T09:40:35;100990.16;;;19.47;80.22
64200;BME280;50516;52.272;5.136;2023-08-31T09:43:00;100988.22;;;19.12;80.54
64200;BME280;50516;52.272;5.136;2023-08-31T09:45:30;100984.94;;;19.02;81.70
64200;BME280;50516;52.272;5.136;2023-08-31T09:47:59;100994.09;;;19.02;81.57
64200;BME280;50516;52.272;5.136;2023-08-31T09:50:30;100991.09;;;18.72;84.41
64200;BME280;50516;52.272;5.136;2023-08-31T09:53:03;101002.66;;;18.57;84.51
64200;BME280;50516;52.272;5.136;2023-08-31T09:55:30;100995.00;;;18.71;80.50
64200;BME280;50516;52.272;5.136;2023-08-31T09:57:57;100989.19;;;19.16;78.51
64200;BME280;50516;52.272;5.136;2023-08-31T10:00:25;100995.09;;;19.24;78.27
64200;BME280;50516;52.272;5.136;2023-08-31T10:02:52;100992.31;;;19.15;77.79
64200;BME280;50516;52.272;5.136;2023-08-31T10:05:18;101000.81;;;19.36;76.19
64200;BME280;50516;52.272;5.136;2023-08-31T10:07:43;100999.84;;;19.14;75.90
64200;BME280;50516;52.272;5.136;2023-08-31T10:10:09;101004.69;;;18.83;77.72
64200;BME280;50516;52.272;5.136;2023-08-31T10:12:35;101004.66;;;18.65;77.63
64200;BME280;50516;52.272;5.136;2023-08-31T10:15:01;101010.63;;;18.90;74.34
64200;BME280;50516;52.272;5.136;2023-08-31T10:17:27;101010.31;;;18.91;73.70
64200;BME280;50516;52.272;5.136;2023-08-31T10:19:54;101003.78;;;18.96;75.24
64200;BME280;50516;52.272;5.136;2023-08-31T10:22:19;101005.38;;;18.97;74.04
64200;BME280;50516;52.272;5.136;2023-08-31T10:25:02;101003.28;;;19.38;72.42
64200;BME280;50516;52.272;5.136;2023-08-31T10:27:44;101007.88;;;19.51;67.75
64200;BME280;50516;52.272;5.136;2023-08-31T10:33:22;101004.25;;;19.59;68.22
64200;BME280;50516;52.272;5.136;2023-08-31T10:38:16;101004.38;;;19.71;69.72
64200;BME280;50516;52.272;5.136;2023-08-31T10:43:48;101027.00;;;18.91;71.87
64200;BME280;50516;52.272;5.136;2023-08-31T10:46:34;101031.69;;;18.33;78.19
64200;BME280;50516;52.272;5.136;2023-08-31T10:51:36;101039.69;;;17.81;79.25
64200;BME280;50516;52.272;5.136;2023-08-31T10:59:23;101041.94;;;17.11;80.65
64200;BME280;50516;52.272;5.136;2023-08-31T11:01:59;101047.34;;;17.16;81.50
64200;BME280;50516;52.272;5.136;2023-08-31T11:04:28;101041.38;;;17.59;81.25
64200;BME280;50516;52.272;5.136;2023-08-31T11:07:16;101043.94;;;17.78;82.16
64200;BME280;50516;52.272;5.136;2023-08-31T11:09:43;101044.53;;;17.89;81.21
64200;BME280;50516;52.272;5.136;2023-08-31T11:12:09;101040.59;;;18.13;80.93
64200;BME280;50516;52.272;5.136;2023-08-31T11:14:35;101035.78;;;18.36;79.86
64200;BME280;50516;52.272;5.136;2023-08-31T11:17:01;101032.91;;;18.58;79.61
64200;BME280;50516;52.272;5.136;2023-08-31T11:19:29;101033.13;;;18.71;79.37
64200;BME280;50516;52.272;5.136;2023-08-31T11:21:54;101037.03;;;18.61;79.66
64200;BME280;50516;52.272;5.136;2023-08-31T11:24:20;101034.88;;;18.18;78.63
64200;BME280;50516;52.272;5.136;2023-08-31T11:26:53;101036.25;;;17.98;78.58
64200;BME280;50516;52.272;5.136;2023-08-31T11:29:18;101039.63;;;18.17;76.94
64200;BME280;50516;52.272;5.136;2023-08-31T11:31:44;101034.94;;;17.95;78.07
64200;BME280;50516;52.272;5.136;2023-08-31T11:34:14;101033.66;;;18.01;77.04
64200;BME280;50516;52.272;5.136;2023-08-31T11:36:41;101037.84;;;18.21;76.95
64200;BME280;50516;52.272;5.136;2023-08-31T11:39:07;101036.25;;;18.29;76.89
64200;BME280;50516;52.272;5.136;2023-08-31T11:41:33;101039.03;;;18.29;75.99
64200;BME280;50516;52.272;5.136;2023-08-31T11:44:01;101042.44;;;18.26;75.04
64200;BME280;50516;52.272;5.136;2023-08-31T11:46:27;101038.13;;;18.42;76.26
64200;BME280;50516;52.272;5.136;2023-08-31T11:48:53;101031.25;;;18.49;75.54
64200;BME280;50516;52.272;5.136;2023-08-31T11:51:19;101035.59;;;18.64;76.58
64200;BME280;50516;52.272;5.136;2023-08-31T11:53:45;101034.03;;;18.49;76.21
64200;BME280;50516;52.272;5.136;2023-08-31T11:56:10;101039.47;;;18.54;73.42
64200;BME280;50516;52.272;5.136;2023-08-31T11:58:41;101036.88;;;18.57;69.46
64200;BME280;50516;52.272;5.136;2023-08-31T12:01:08;101039.22;;;18.82;72.10
64200;BME280;50516;52.272;5.136;2023-08-31T12:03:42;101030.88;;;18.82;69.46
64200;BME280;50516;52.272;5.136;2023-08-31T12:06:14;101040.69;;;18.79;67.31
64200;BME280;50516;52.272;5.136;2023-08-31T12:08:40;101035.19;;;18.88;65.50
64200;BME280;50516;52.272;5.136;2023-08-31T12:11:08;101036.50;;;18.99;66.56
64200;BME280;50516;52.272;5.136;2023-08-31T12:13:33;101034.22;;;19.01;65.68
64200;BME280;50516;52.272;5.136;2023-08-31T12:15:58;101037.00;;;19.01;64.92
64200;BME280;50516;52.272;5.136;2023-08-31T12:18:23;101038.00;;;19.14;65.65
64200;BME280;50516;52.272;5.136;2023-08-31T12:20:50;101037.31;;;19.08;65.67
64200;BME280;50516;52.272;5.136;2023-08-31T12:23:19;101042.84;;;18.91;61.39
64200;BME280;50516;52.272;5.136;2023-08-31T12:25:51;101041.25;;;18.90;63.48
64200;BME280;50516;52.272;5.136;2023-08-31T12:28:20;101044.19;;;18.93;63.61
64200;BME280;50516;52.272;5.136;2023-08-31T12:30:53;101054.13;;;18.86;60.64
64200;BME280;50516;52.272;5.136;2023-08-31T12:33:20;101041.06;;;18.95;63.47
64200;BME280;50516;52.272;5.136;2023-08-31T12:35:46;101039.47;;;19.03;62.74
64200;BME280;50516;52.272;5.136;2023-08-31T12:38:12;101046.31;;;18.88;60.51
64200;BME280;50516;52.272;5.136;2023-08-31T12:40:37;101050.06;;;18.92;60.63
64200;BME280;50516;52.272;5.136;2023-08-31T12:43:06;101052.53;;;19.02;62.81
64200;BME280;50516;52.272;5.136;2023-08-31T12:45:32;101041.44;;;19.11;63.84
64200;BME280;50516;52.272;5.136;2023-08-31T12:47:58;101046.69;;;19.12;63.41
64200;BME280;50516;52.272;5.136;2023-08-31T12:50:23;101055.31;;;19.02;62.03
64200;BME280;50516;52.272;5.136;2023-08-31T12:52:48;101044.50;;;19.01;60.40
64200;BME280;50516;52.272;5.136;2023-08-31T12:55:14;101050.91;;;19.01;61.04
64200;BME280;50516;52.272;5.136;2023-08-31T12:57:40;101057.44;;;18.96;59.75
64200;BME280;50516;52.272;5.136;2023-08-31T13:00:10;101059.59;;;19.00;59.93
64200;BME280;50516;52.272;5.136;2023-08-31T13:02:42;101054.03;;;19.08;61.58
64200;BME280;50516;52.272;5.136;2023-08-31T13:05:08;101054.19;;;19.03;61.12
64200;BME280;50516;52.272;5.136;2023-08-31T13:07:36;101049.09;;;19.05;60.50